sensor_id;sensor_type;location;lat;lon;timestamp;temperature;humidity
78475;SHT31;67766;51.964;5.660;2023-04-06T00:00:18;10.5;42.2
78475;SHT31;67766;51.964;5.660;2023-04-06T00:02:48;10.4;42.3
78475;SHT31;67766;51.964;5.660;2023-04-06T00:05:21;10.4;42.2
78475;SHT31;67766;51.964;5.660;2023-04-06T00:07:54;10.4;42.3
78475;SHT31;67766;51.964;5.660;2023-04-06T00:10:23;10.3;42.3
78475;SHT31;67766;51.964;5.660;2023-04-06T00:12:54;10.3;42.3
78475;SHT31;67766;51.964;5.660;2023-04-06T00:15:25;10.2;42.3
78475;SHT31;67766;51.964;5.660;2023-04-06T00:17:55;10.2;42.3
78475;SHT31;67766;51.964;5.660;2023-04-06T00:20:25;10.2;42.5
78475;SHT31;67766;51.964;5.660;2023-04-06T00:22:54;10.2;42.4
78475;SHT31;67766;51.964;5.660;2023-04-06T00:25:24;10.1;42.6
78475;SHT31;67766;51.964;5.660;2023-04-06T00:27:54;10.1;42.5
78475;SHT31;67766;51.964;5.660;2023-04-06T00:30:23;10.1;42.5
78475;SHT31;67766;51.964;5.660;2023-04-06T00:32:53;10.1;42.5
78475;SHT31;67766;51.964;5.660;2023-04-06T00:35:23;10.1;42.4
78475;SHT31;67766;51.964;5.660;2023-04-06T00:37:52;10.1;42.4
78475;SHT31;67766;51.964;5.660;2023-04-06T00:40:22;10.1;42.5
78475;SHT31;67766;51.964;5.660;2023-04-06T00:42:52;10.1;42.4
78475;SHT31;67766;51.964;5.660;2023-04-06T00:45:21;10.0;42.4
78475;SHT31;67766;51.964;5.660;2023-04-06T00:47:51;10.0;42.7
78475;SHT31;67766;51.964;5.660;2023-04-06T00:50:21;10.0;42.8
78475;SHT31;67766;51.964;5.660;2023-04-06T00:52:51;9.9;43.0
78475;SHT31;67766;51.964;5.660;2023-04-06T00:55:22;9.9;43.1
78475;SHT31;67766;51.964;5.660;2023-04-06T00:57:52;9.9;43.4
78475;SHT31;67766;51.964;5.660;2023-04-06T01:00:22;9.8;43.5
78475;SHT31;67766;51.964;5.660;2023-04-06T01:02:52;9.8;43.7
78475;SHT31;67766;51.964;5.660;2023-04-06T01:05:24;9.8;44.0
78475;SHT31;67766;51.964;5.660;2023-04-06T01:07:53;9.7;44.2
78475;SHT31;67766;51.964;5.660;2023-04-06T01:10:27;9.7;44.4
78475;SHT31;67766;51.964;5.660;2023-04-06T01:12:58;9.7;44.5
78475;SHT31;67766;51.964;5.660;2023-04-06T01:15:28;9.7;44.8
78475;SHT31;67766;51.964;5.660;2023-04-06T01:17:59;9.6;44.7
78475;SHT31;67766;51.964;5.660;2023-04-06T01:20:28;9.6;44.9
78475;SHT31;67766;51.964;5.660;2023-04-06T01:22:58;9.6;45.0
78475;SHT31;67766;51.964;5.660;2023-04-06T01:25:27;9.6;44.8
78475;SHT31;67766;51.964;5.660;2023-04-06T01:27:57;9.6;44.8
78475;SHT31;67766;51.964;5.660;2023-04-06T01:30:27;9.5;44.7
78475;SHT31;67766;51.964;5.660;2023-04-06T01:32:57;9.5;45.0
78475;SHT31;67766;51.964;5.660;2023-04-06T01:35:27;9.5;44.7
78475;SHT31;67766;51.964;5.660;2023-04-06T01:37:58;9.5;44.7
78475;SHT31;67766;51.964;5.660;2023-04-06T01:40:27;9.5;44.7
78475;SHT31;67766;51.964;5.660;2023-04-06T01:42:57;9.4;45.1
78475;SHT31;67766;51.964;5.660;2023-04-06T01:45:26;9.4;45.0
78475;SHT31;67766;51.964;5.660;2023-04-06T01:47:56;9.4;44.9
78475;SHT31;67766;51.964;5.660;2023-04-06T01:50:26;9.3;45.1
78475;SHT31;67766;51.964;5.660;2023-04-06T01:52:55;9.3;45.1
78475;SHT31;67766;51.964;5.660;2023-04-06T01:55:25;9.3;45.4
78475;SHT31;67766;51.964;5.660;2023-04-06T01:57:55;9.2;45.4
78475;SHT31;67766;51.964;5.660;2023-04-06T02:00:24;9.2;45.2
78475;SHT31;67766;51.964;5.660;2023-04-06T02:02:54;9.2;45.5
78475;SHT31;67766;51.964;5.660;2023-04-06T02:05:23;9.1;45.5
78475;SHT31;67766;51.964;5.660;2023-04-06T02:07:53;9.1;46.1
78475;SHT31;67766;51.964;5.660;2023-04-06T02:10:23;9.1;45.6
78475;SHT31;67766;51.964;5.660;2023-04-06T02:12:55;9.1;46.3
78475;SHT31;67766;51.964;5.660;2023-04-06T02:15:24;9.0;46.5
78475;SHT31;67766;51.964;5.660;2023-04-06T02:17:54;9.0;46.3
78475;SHT31;67766;51.964;5.660;2023-04-06T02:20:26;9.0;46.3
78475;SHT31;67766;51.964;5.660;2023-04-06T02:22:56;9.1;46.4
78475;SHT31;67766;51.964;5.660;2023-04-06T02:25:26;9.1;46.5
78475;SHT31;67766;51.964;5.660;2023-04-06T02:27:58;9.1;46.3
78475;SHT31;67766;51.964;5.660;2023-04-06T02:30:27;9.1;45.8
78475;SHT31;67766;51.964;5.660;2023-04-06T02:32:59;9.1;46.0
78475;SHT31;67766;51.964;5.660;2023-04-06T02:35:30;9.1;45.4
78475;SHT31;67766;51.964;5.660;2023-04-06T02:38:02;9.1;45.3
78475;SHT31;67766;51.964;5.660;2023-04-06T02:40:31;9.1;45.2
78475;SHT31;67766;51.964;5.660;2023-04-06T02:43:01;9.1;45.5
78475;SHT31;67766;51.964;5.660;2023-04-06T02:45:30;9.1;45.6
78475;SHT31;67766;51.964;5.660;2023-04-06T02:48:01;9.1;45.3
78475;SHT31;67766;51.964;5.660;2023-04-06T02:50:30;9.1;45.2
78475;SHT31;67766;51.964;5.660;2023-04-06T02:53:00;9.1;45.0
78475;SHT31;67766;51.964;5.660;2023-04-06T02:55:29;9.1;45.0
78475;SHT31;67766;51.964;5.660;2023-04-06T02:57:59;9.1;44.6
78475;SHT31;67766;51.964;5.660;2023-04-06T03:00:28;9.1;44.3
78475;SHT31;67766;51.964;5.660;2023-04-06T03:02:58;9.1;44.4
78475;SHT31;67766;51.964;5.660;2023-04-06T03:05:28;9.1;44.5
78475;SHT31;67766;51.964;5.660;2023-04-06T03:07:58;9.0;44.7
78475;SHT31;67766;51.964;5.660;2023-04-06T03:10:27;9.0;44.6
78475;SHT31;67766;51.964;5.660;2023-04-06T03:12:57;9.0;44.5
78475;SHT31;67766;51.964;5.660;2023-04-06T03:15:27;9.0;44.5
78475;SHT31;67766;51.964;5.660;2023-04-06T03:17:57;9.0;44.4
78475;SHT31;67766;51.964;5.660;2023-04-06T03:20:27;9.1;44.5
78475;SHT31;67766;51.964;5.660;2023-04-06T03:22:57;9.1;44.6
78475;SHT31;67766;51.964;5.660;2023-04-06T03:25:27;9.1;44.2
78475;SHT31;67766;51.964;5.660;2023-04-06T03:27:57;9.1;44.3
78475;SHT31;67766;51.964;5.660;2023-04-06T03:30:27;9.0;44.2
78475;SHT31;67766;51.964;5.660;2023-04-06T03:32:57;9.0;44.6
78475;SHT31;67766;51.964;5.660;2023-04-06T03:35:26;9.0;44.0
78475;SHT31;67766;51.964;5.660;2023-04-06T03:37:56;9.0;43.9
78475;SHT31;67766;51.964;5.660;2023-04-06T03:40:25;9.0;44.5
78475;SHT31;67766;51.964;5.660;2023-04-06T03:42:55;8.9;44.5
78475;SHT31;67766;51.964;5.660;2023-04-06T03:45:25;8.9;45.0
78475;SHT31;67766;51.964;5.660;2023-04-06T03:47:54;8.9;44.6
78475;SHT31;67766;51.964;5.660;2023-04-06T03:50:24;8.9;44.9
78475;SHT31;67766;51.964;5.660;2023-04-06T03:52:53;8.9;45.1
78475;SHT31;67766;51.964;5.660;2023-04-06T03:55:23;8.9;44.4
78475;SHT31;67766;51.964;5.660;2023-04-06T03:57:53;8.9;44.4
78475;SHT31;67766;51.964;5.660;2023-04-06T04:00:23;8.9;44.4
78475;SHT31;67766;51.964;5.660;2023-04-06T04:02:52;8.9;44.6
78475;SHT31;67766;51.964;5.660;2023-04-06T04:05:22;8.8;45.0
78475;SHT31;67766;51.964;5.660;2023-04-06T04:07:52;8.9;44.7
78475;SHT31;67766;51.964;5.660;2023-04-06T04:10:22;8.8;44.7
78475;SHT31;67766;51.964;5.660;2023-04-06T04:12:52;8.8;44.6
78475;SHT31;67766;51.964;5.660;2023-04-06T04:15:22;8.8;44.8
78475;SHT31;67766;51.964;5.660;2023-04-06T04:17:51;8.8;45.2
78475;SHT31;67766;51.964;5.660;2023-04-06T04:20:21;8.7;45.5
78475;SHT31;67766;51.964;5.660;2023-04-06T04:22:51;8.7;45.5
78475;SHT31;67766;51.964;5.660;2023-04-06T04:25:20;8.7;45.6
78475;SHT31;67766;51.964;5.660;2023-04-06T04:27:50;8.7;45.5
78475;SHT31;67766;51.964;5.660;2023-04-06T04:30:20;8.6;45.8
78475;SHT31;67766;51.964;5.660;2023-04-06T04:32:49;8.6;46.1
78475;SHT31;67766;51.964;5.660;2023-04-06T04:35:19;8.6;45.6
78475;SHT31;67766;51.964;5.660;2023-04-06T04:37:51;8.6;45.8
78475;SHT31;67766;51.964;5.660;2023-04-06T04:40:20;8.5;45.8
78475;SHT31;67766;51.964;5.660;2023-04-06T04:42:50;8.5;45.8
78475;SHT31;67766;51.964;5.660;2023-04-06T04:45:20;8.5;46.0
78475;SHT31;67766;51.964;5.660;2023-04-06T04:47:49;8.5;46.2
78475;SHT31;67766;51.964;5.660;2023-04-06T04:50:19;8.5;45.5
78475;SHT31;67766;51.964;5.660;2023-04-06T04:52:49;8.4;45.8
78475;SHT31;67766;51.964;5.660;2023-04-06T04:55:19;8.4;45.8
78475;SHT31;67766;51.964;5.660;2023-04-06T04:57:48;8.4;46.1
78475;SHT31;67766;51.964;5.660;2023-04-06T05:00:18;8.4;46.4
78475;SHT31;67766;51.964;5.660;2023-04-06T05:02:48;8.4;46.7
78475;SHT31;67766;51.964;5.660;2023-04-06T05:05:17;8.4;46.3
78475;SHT31;67766;51.964;5.660;2023-04-06T05:07:47;8.4;46.4
78475;SHT31;67766;51.964;5.660;2023-04-06T05:10:17;8.4;46.4
78475;SHT31;67766;51.964;5.660;2023-04-06T05:12:47;8.4;46.7
78475;SHT31;67766;51.964;5.660;2023-04-06T05:15:19;8.4;47.0
78475;SHT31;67766;51.964;5.660;2023-04-06T05:17:48;8.4;46.5
78475;SHT31;67766;51.964;5.660;2023-04-06T05:20:18;8.4;46.7
78475;SHT31;67766;51.964;5.660;2023-04-06T05:22:47;8.5;46.5
78475;SHT31;67766;51.964;5.660;2023-04-06T05:25:17;8.5;46.0
78475;SHT31;67766;51.964;5.660;2023-04-06T05:27:47;8.5;46.2
78475;SHT31;67766;51.964;5.660;2023-04-06T05:30:17;8.5;46.4
78475;SHT31;67766;51.964;5.660;2023-04-06T05:32:48;8.5;46.3
78475;SHT31;67766;51.964;5.660;2023-04-06T05:35:17;8.5;46.2
78475;SHT31;67766;51.964;5.660;2023-04-06T05:37:49;8.5;46.2
78475;SHT31;67766;51.964;5.660;2023-04-06T05:40:18;8.4;46.3
78475;SHT31;67766;51.964;5.660;2023-04-06T05:42:48;8.4;46.3
78475;SHT31;67766;51.964;5.660;2023-04-06T05:45:19;8.4;46.5
78475;SHT31;67766;51.964;5.660;2023-04-06T05:47:48;8.4;46.9
78475;SHT31;67766;51.964;5.660;2023-04-06T05:50:18;8.4;47.1
78475;SHT31;67766;51.964;5.660;2023-04-06T05:52:48;8.4;47.1
78475;SHT31;67766;51.964;5.660;2023-04-06T05:55:18;8.4;47.7
78475;SHT31;67766;51.964;5.660;2023-04-06T05:57:47;8.4;46.8
78475;SHT31;67766;51.964;5.660;2023-04-06T06:00:17;8.4;47.1
78475;SHT31;67766;51.964;5.660;2023-04-06T06:02:47;8.4;47.5
78475;SHT31;67766;51.964;5.660;2023-04-06T06:05:17;8.4;47.4
78475;SHT31;67766;51.964;5.660;2023-04-06T06:07:47;8.4;48.2
78475;SHT31;67766;51.964;5.660;2023-04-06T06:10:17;8.4;48.2
78475;SHT31;67766;51.964;5.660;2023-04-06T06:12:46;8.5;48.1
78475;SHT31;67766;51.964;5.660;2023-04-06T06:15:16;8.5;48.5
78475;SHT31;67766;51.964;5.660;2023-04-06T06:17:46;8.5;48.5
78475;SHT31;67766;51.964;5.660;2023-04-06T06:20:16;8.5;48.6
78475;SHT31;67766;51.964;5.660;2023-04-06T06:22:45;8.6;49.1
78475;SHT31;67766;51.964;5.660;2023-04-06T06:25:15;8.6;48.7
78475;SHT31;67766;51.964;5.660;2023-04-06T06:27:44;8.6;48.9
78475;SHT31;67766;51.964;5.660;2023-04-06T06:30:16;8.7;48.9
78475;SHT31;67766;51.964;5.660;2023-04-06T06:32:49;8.7;49.3
78475;SHT31;67766;51.964;5.660;2023-04-06T06:35:19;8.8;49.2
78475;SHT31;67766;51.964;5.660;2023-04-06T06:37:48;8.8;49.2
78475;SHT31;67766;51.964;5.660;2023-04-06T06:40:20;8.9;48.2
78475;SHT31;67766;51.964;5.660;2023-04-06T06:42:51;8.9;48.1
78475;SHT31;67766;51.964;5.660;2023-04-06T06:45:21;8.9;48.3
78475;SHT31;67766;51.964;5.660;2023-04-06T06:47:52;8.9;48.3
78475;SHT31;67766;51.964;5.660;2023-04-06T06:50:22;8.9;48.3
78475;SHT31;67766;51.964;5.660;2023-04-06T06:52:54;8.9;48.5
78475;SHT31;67766;51.964;5.660;2023-04-06T06:55:23;8.9;48.6
78475;SHT31;67766;51.964;5.660;2023-04-06T06:57:54;9.0;48.5
78475;SHT31;67766;51.964;5.660;2023-04-06T07:00:24;9.0;48.4
78475;SHT31;67766;51.964;5.660;2023-04-06T07:02:53;9.0;49.1
78475;SHT31;67766;51.964;5.660;2023-04-06T07:05:23;9.1;49.7
78475;SHT31;67766;51.964;5.660;2023-04-06T07:07:53;9.1;49.7
78475;SHT31;67766;51.964;5.660;2023-04-06T07:10:23;9.2;50.9
78475;SHT31;67766;51.964;5.660;2023-04-06T07:12:53;9.3;50.3
78475;SHT31;67766;51.964;5.660;2023-04-06T07:15:23;9.4;50.6
78475;SHT31;67766;51.964;5.660;2023-04-06T07:17:53;9.4;50.6
78475;SHT31;67766;51.964;5.660;2023-04-06T07:20:23;9.5;50.3
78475;SHT31;67766;51.964;5.660;2023-04-06T07:22:57;9.6;50.2
78475;SHT31;67766;51.964;5.660;2023-04-06T07:25:27;9.7;49.7
78475;SHT31;67766;51.964;5.660;2023-04-06T07:27:56;9.8;48.3
78475;SHT31;67766;51.964;5.660;2023-04-06T07:30:26;9.8;48.6
78475;SHT31;67766;51.964;5.660;2023-04-06T07:32:57;9.9;47.6
78475;SHT31;67766;51.964;5.660;2023-04-06T07:35:27;9.9;47.4
78475;SHT31;67766;51.964;5.660;2023-04-06T07:37:57;10.0;46.8
78475;SHT31;67766;51.964;5.660;2023-04-06T07:40:27;10.0;46.4
78475;SHT31;67766;51.964;5.660;2023-04-06T07:42:57;10.1;46.7
78475;SHT31;67766;51.964;5.660;2023-04-06T07:45:26;10.1;46.5
78475;SHT31;67766;51.964;5.660;2023-04-06T07:47:56;10.1;46.5
78475;SHT31;67766;51.964;5.660;2023-04-06T07:50:26;10.1;46.0
78475;SHT31;67766;51.964;5.660;2023-04-06T07:52:55;10.1;47.4
78475;SHT31;67766;51.964;5.660;2023-04-06T07:55:25;10.2;46.8
78475;SHT31;67766;51.964;5.660;2023-04-06T07:57:55;10.2;46.7
78475;SHT31;67766;51.964;5.660;2023-04-06T08:00:25;10.3;46.3
78475;SHT31;67766;51.964;5.660;2023-04-06T08:02:54;10.3;47.5
78475;SHT31;67766;51.964;5.660;2023-04-06T08:05:24;10.3;49.3
78475;SHT31;67766;51.964;5.660;2023-04-06T08:07:53;10.3;49.0
78475;SHT31;67766;51.964;5.660;2023-04-06T08:10:23;10.4;48.5
78475;SHT31;67766;51.964;5.660;2023-04-06T08:12:53;10.4;47.9
78475;SHT31;67766;51.964;5.660;2023-04-06T08:15:22;10.4;48.0
78475;SHT31;67766;51.964;5.660;2023-04-06T08:17:54;10.3;48.8
78475;SHT31;67766;51.964;5.660;2023-04-06T08:20:25;10.3;48.5
78475;SHT31;67766;51.964;5.660;2023-04-06T08:22:54;10.3;49.0
78475;SHT31;67766;51.964;5.660;2023-04-06T08:25:24;10.2;49.6
78475;SHT31;67766;51.964;5.660;2023-04-06T08:27:54;10.2;49.2
78475;SHT31;67766;51.964;5.660;2023-04-06T08:30:23;10.1;50.0
78475;SHT31;67766;51.964;5.660;2023-04-06T08:32:53;10.1;49.7
78475;SHT31;67766;51.964;5.660;2023-04-06T08:35:23;10.1;50.1
78475;SHT31;67766;51.964;5.660;2023-04-06T08:37:52;10.1;50.0
78475;SHT31;67766;51.964;5.660;2023-04-06T08:40:22;10.1;51.2
78475;SHT31;67766;51.964;5.660;2023-04-06T08:42:54;10.1;50.7
78475;SHT31;67766;51.964;5.660;2023-04-06T08:45:24;10.1;50.2
78475;SHT31;67766;51.964;5.660;2023-04-06T08:47:57;10.2;49.6
78475;SHT31;67766;51.964;5.660;2023-04-06T08:50:29;10.2;50.1
78475;SHT31;67766;51.964;5.660;2023-04-06T08:53:01;10.2;49.6
78475;SHT31;67766;51.964;5.660;2023-04-06T08:55:32;10.2;49.7
78475;SHT31;67766;51.964;5.660;2023-04-06T08:58:04;10.2;50.4
78475;SHT31;67766;51.964;5.660;2023-04-06T09:00:38;10.3;50.2
78475;SHT31;67766;51.964;5.660;2023-04-06T09:03:12;10.3;50.4
78475;SHT31;67766;51.964;5.660;2023-04-06T09:05:43;10.3;51.7
78475;SHT31;67766;51.964;5.660;2023-04-06T09:08:13;10.3;51.4
78475;SHT31;67766;51.964;5.660;2023-04-06T09:10:43;10.4;51.4
78475;SHT31;67766;51.964;5.660;2023-04-06T09:13:13;10.4;50.9
78475;SHT31;67766;51.964;5.660;2023-04-06T09:15:42;10.5;50.1
78475;SHT31;67766;51.964;5.660;2023-04-06T09:18:12;10.5;50.8
78475;SHT31;67766;51.964;5.660;2023-04-06T09:20:42;10.5;50.5
78475;SHT31;67766;51.964;5.660;2023-04-06T09:23:19;10.5;50.1
78475;SHT31;67766;51.964;5.660;2023-04-06T09:25:49;10.5;50.4
78475;SHT31;67766;51.964;5.660;2023-04-06T09:28:19;10.5;50.0
78475;SHT31;67766;51.964;5.660;2023-04-06T09:30:49;10.5;51.1
78475;SHT31;67766;51.964;5.660;2023-04-06T09:33:23;10.5;50.6
78475;SHT31;67766;51.964;5.660;2023-04-06T09:35:53;10.6;51.2
78475;SHT31;67766;51.964;5.660;2023-04-06T09:38:23;10.6;52.3
78475;SHT31;67766;51.964;5.660;2023-04-06T09:40:52;10.6;51.3
78475;SHT31;67766;51.964;5.660;2023-04-06T09:43:26;10.6;50.6
78475;SHT31;67766;51.964;5.660;2023-04-06T09:45:56;10.6;51.3
78475;SHT31;67766;51.964;5.660;2023-04-06T09:48:30;10.6;51.2
78475;SHT31;67766;51.964;5.660;2023-04-06T09:51:04;10.7;51.6
78475;SHT31;67766;51.964;5.660;2023-04-06T09:53:38;10.7;51.6
78475;SHT31;67766;51.964;5.660;2023-04-06T09:56:12;10.7;51.6
78475;SHT31;67766;51.964;5.660;2023-04-06T09:58:49;10.7;51.5
78475;SHT31;67766;51.964;5.660;2023-04-06T10:01:22;10.7;51.1
78475;SHT31;67766;51.964;5.660;2023-04-06T10:04:06;10.7;51.3
78475;SHT31;67766;51.964;5.660;2023-04-06T10:06:40;10.7;50.1
78475;SHT31;67766;51.964;5.660;2023-04-06T10:09:10;10.7;50.8
78475;SHT31;67766;51.964;5.660;2023-04-06T10:11:42;10.7;50.9
78475;SHT31;67766;51.964;5.660;2023-04-06T10:14:12;10.7;50.6
78475;SHT31;67766;51.964;5.660;2023-04-06T10:16:42;10.7;51.1
78475;SHT31;67766;51.964;5.660;2023-04-06T10:19:15;10.8;50.8
78475;SHT31;67766;51.964;5.660;2023-04-06T10:21:48;10.8;52.0
78475;SHT31;67766;51.964;5.660;2023-04-06T10:24:19;10.8;51.5
78475;SHT31;67766;51.964;5.660;2023-04-06T10:26:59;10.9;51.5
78475;SHT31;67766;51.964;5.660;2023-04-06T10:29:44;10.9;51.7
78475;SHT31;67766;51.964;5.660;2023-04-06T10:32:16;10.9;52.2
78475;SHT31;67766;51.964;5.660;2023-04-06T10:34:45;11.0;53.0
78475;SHT31;67766;51.964;5.660;2023-04-06T10:37:16;11.0;52.5
78475;SHT31;67766;51.964;5.660;2023-04-06T10:39:54;11.1;53.5
78475;SHT31;67766;51.964;5.660;2023-04-06T10:42:38;11.1;52.9
78475;SHT31;67766;51.964;5.660;2023-04-06T10:45:22;11.2;53.4
78475;SHT31;67766;51.964;5.660;2023-04-06T10:47:54;11.2;53.5
78475;SHT31;67766;51.964;5.660;2023-04-06T10:50:25;11.3;53.8
78475;SHT31;67766;51.964;5.660;2023-04-06T10:53:04;11.3;54.6
78475;SHT31;67766;51.964;5.660;2023-04-06T10:55:34;11.4;55.6
78475;SHT31;67766;51.964;5.660;2023-04-06T10:58:06;11.4;56.4
78475;SHT31;67766;51.964;5.660;2023-04-06T11:00:36;11.5;55.9
78475;SHT31;67766;51.964;5.660;2023-04-06T11:03:10;11.5;55.7
78475;SHT31;67766;51.964;5.660;2023-04-06T11:05:43;11.5;55.5
78475;SHT31;67766;51.964;5.660;2023-04-06T11:08:26;11.5;57.9
78475;SHT31;67766;51.964;5.660;2023-04-06T11:11:07;11.5;59.0
78475;SHT31;67766;51.964;5.660;2023-04-06T11:13:41;11.4;59.2
78475;SHT31;67766;51.964;5.660;2023-04-06T11:16:15;11.4;60.5
78475;SHT31;67766;51.964;5.660;2023-04-06T11:18:50;11.5;61.0
78475;SHT31;67766;51.964;5.660;2023-04-06T11:21:32;11.5;58.9
78475;SHT31;67766;51.964;5.660;2023-04-06T11:24:06;11.5;59.6
78475;SHT31;67766;51.964;5.660;2023-04-06T11:26:41;11.5;60.9
78475;SHT31;67766;51.964;5.660;2023-04-06T11:29:12;11.4;58.8
78475;SHT31;67766;51.964;5.660;2023-04-06T11:31:45;11.4;59.0
78475;SHT31;67766;51.964;5.660;2023-04-06T11:34:16;11.3;60.0
78475;SHT31;67766;51.964;5.660;2023-04-06T11:36:47;11.2;58.9
78475;SHT31;67766;51.964;5.660;2023-04-06T11:39:21;11.1;59.3
78475;SHT31;67766;51.964;5.660;2023-04-06T11:41:52;11.1;61.0
78475;SHT31;67766;51.964;5.660;2023-04-06T11:44:32;11.0;60.4
78475;SHT31;67766;51.964;5.660;2023-04-06T11:47:04;10.9;61.8
78475;SHT31;67766;51.964;5.660;2023-04-06T11:49:36;10.9;61.4
78475;SHT31;67766;51.964;5.660;2023-04-06T11:52:15;10.9;61.7
78475;SHT31;67766;51.964;5.660;2023-04-06T11:54:46;10.9;61.6
78475;SHT31;67766;51.964;5.660;2023-04-06T11:57:17;10.9;62.2
78475;SHT31;67766;51.964;5.660;2023-04-06T11:59:47;10.8;63.2
78475;SHT31;67766;51.964;5.660;2023-04-06T12:02:17;10.8;62.5
78475;SHT31;67766;51.964;5.660;2023-04-06T12:04:47;10.8;61.8
78475;SHT31;67766;51.964;5.660;2023-04-06T12:07:18;10.8;61.0
78475;SHT31;67766;51.964;5.660;2023-04-06T12:09:48;10.8;61.1
78475;SHT31;67766;51.964;5.660;2023-04-06T12:12:17;10.7;61.4
78475;SHT31;67766;51.964;5.660;2023-04-06T12:14:47;10.6;63.2
78475;SHT31;67766;51.964;5.660;2023-04-06T12:17:18;10.6;62.8
78475;SHT31;67766;51.964;5.660;2023-04-06T12:19:47;10.6;63.0
78475;SHT31;67766;51.964;5.660;2023-04-06T12:22:17;10.6;62.5
78475;SHT31;67766;51.964;5.660;2023-04-06T12:24:47;10.6;63.0
78475;SHT31;67766;51.964;5.660;2023-04-06T12:27:16;10.6;63.7
78475;SHT31;67766;51.964;5.660;2023-04-06T12:29:47;10.5;64.0
78475;SHT31;67766;51.964;5.660;2023-04-06T12:32:17;10.5;63.7
78475;SHT31;67766;51.964;5.660;2023-04-06T12:34:47;10.5;64.3
78475;SHT31;67766;51.964;5.660;2023-04-06T12:37:18;10.5;65.1
78475;SHT31;67766;51.964;5.660;2023-04-06T12:39:48;10.5;64.9
78475;SHT31;67766;51.964;5.660;2023-04-06T12:42:20;10.5;64.6
78475;SHT31;67766;51.964;5.660;2023-04-06T12:44:49;10.4;66.0
78475;SHT31;67766;51.964;5.660;2023-04-06T12:47:19;10.4;66.8
78475;SHT31;67766;51.964;5.660;2023-04-06T12:49:50;10.3;67.5
78475;SHT31;67766;51.964;5.660;2023-04-06T12:52:21;10.3;66.7
78475;SHT31;67766;51.964;5.660;2023-04-06T12:54:51;10.3;67.7
78475;SHT31;67766;51.964;5.660;2023-04-06T12:57:22;10.3;67.5
78475;SHT31;67766;51.964;5.660;2023-04-06T12:59:52;10.4;67.2
78475;SHT31;67766;51.964;5.660;2023-04-06T13:02:22;10.4;67.5
78475;SHT31;67766;51.964;5.660;2023-04-06T13:04:54;10.4;66.7
78475;SHT31;67766;51.964;5.660;2023-04-06T13:07:25;10.4;66.4
78475;SHT31;67766;51.964;5.660;2023-04-06T13:09:55;10.4;66.0
78475;SHT31;67766;51.964;5.660;2023-04-06T13:12:25;10.4;67.4
78475;SHT31;67766;51.964;5.660;2023-04-06T13:14:54;10.5;67.7
78475;SHT31;67766;51.964;5.660;2023-04-06T13:17:35;10.6;66.7
78475;SHT31;67766;51.964;5.660;2023-04-06T13:20:06;10.8;67.0
78475;SHT31;67766;51.964;5.660;2023-04-06T13:22:37;10.8;66.4
78475;SHT31;67766;51.964;5.660;2023-04-06T13:25:08;10.9;65.7
78475;SHT31;67766;51.964;5.660;2023-04-06T13:27:38;11.0;64.1
78475;SHT31;67766;51.964;5.660;2023-04-06T13:30:08;11.0;64.6
78475;SHT31;67766;51.964;5.660;2023-04-06T13:32:38;10.9;64.4
78475;SHT31;67766;51.964;5.660;2023-04-06T13:35:08;10.9;64.8
78475;SHT31;67766;51.964;5.660;2023-04-06T13:37:39;10.8;65.3
78475;SHT31;67766;51.964;5.660;2023-04-06T13:40:11;10.7;64.8
78475;SHT31;67766;51.964;5.660;2023-04-06T13:42:41;10.7;65.3
78475;SHT31;67766;51.964;5.660;2023-04-06T13:45:12;10.7;66.5
78475;SHT31;67766;51.964;5.660;2023-04-06T13:47:42;10.7;65.7
78475;SHT31;67766;51.964;5.660;2023-04-06T13:50:12;10.7;65.7
78475;SHT31;67766;51.964;5.660;2023-04-06T13:52:42;10.7;66.6
78475;SHT31;67766;51.964;5.660;2023-04-06T13:55:12;10.7;67.1
78475;SHT31;67766;51.964;5.660;2023-04-06T13:57:42;10.8;66.8
78475;SHT31;67766;51.964;5.660;2023-04-06T14:00:13;10.8;67.2
78475;SHT31;67766;51.964;5.660;2023-04-06T14:02:43;10.8;66.7
78475;SHT31;67766;51.964;5.660;2023-04-06T14:05:13;10.7;66.6
78475;SHT31;67766;51.964;5.660;2023-04-06T14:07:43;10.6;67.3
78475;SHT31;67766;51.964;5.660;2023-04-06T14:10:13;10.6;67.8
78475;SHT31;67766;51.964;5.660;2023-04-06T14:12:43;10.5;68.2
78475;SHT31;67766;51.964;5.660;2023-04-06T14:15:14;10.5;68.8
78475;SHT31;67766;51.964;5.660;2023-04-06T14:17:43;10.5;68.9
78475;SHT31;67766;51.964;5.660;2023-04-06T14:20:13;10.4;68.7
78475;SHT31;67766;51.964;5.660;2023-04-06T14:22:43;10.4;69.3
78475;SHT31;67766;51.964;5.660;2023-04-06T14:25:15;10.4;69.2
78475;SHT31;67766;51.964;5.660;2023-04-06T14:27:45;10.4;69.9
78475;SHT31;67766;51.964;5.660;2023-04-06T14:30:17;10.4;69.8
78475;SHT31;67766;51.964;5.660;2023-04-06T14:32:47;10.4;69.7
78475;SHT31;67766;51.964;5.660;2023-04-06T14:35:16;10.4;69.9
78475;SHT31;67766;51.964;5.660;2023-04-06T14:37:46;10.4;70.4
78475;SHT31;67766;51.964;5.660;2023-04-06T14:40:17;10.4;70.5
78475;SHT31;67766;51.964;5.660;2023-04-06T14:42:46;10.4;70.7
78475;SHT31;67766;51.964;5.660;2023-04-06T14:45:18;10.4;70.6
78475;SHT31;67766;51.964;5.660;2023-04-06T14:47:49;10.4;70.8
78475;SHT31;67766;51.964;5.660;2023-04-06T14:50:18;10.4;70.4
78475;SHT31;67766;51.964;5.660;2023-04-06T14:52:48;10.3;70.6
78475;SHT31;67766;51.964;5.660;2023-04-06T14:55:18;10.3;71.2
78475;SHT31;67766;51.964;5.660;2023-04-06T14:57:48;10.3;71.7
78475;SHT31;67766;51.964;5.660;2023-04-06T15:00:18;10.3;71.8
78475;SHT31;67766;51.964;5.660;2023-04-06T15:02:47;10.3;72.1
78475;SHT31;67766;51.964;5.660;2023-04-06T15:05:17;10.3;71.6
78475;SHT31;67766;51.964;5.660;2023-04-06T15:07:47;10.3;71.5
78475;SHT31;67766;51.964;5.660;2023-04-06T15:10:17;10.3;71.6
78475;SHT31;67766;51.964;5.660;2023-04-06T15:12:46;10.3;71.9
78475;SHT31;67766;51.964;5.660;2023-04-06T15:15:17;10.3;72.0
78475;SHT31;67766;51.964;5.660;2023-04-06T15:17:46;10.4;71.7
78475;SHT31;67766;51.964;5.660;2023-04-06T15:20:17;10.4;71.5
78475;SHT31;67766;51.964;5.660;2023-04-06T15:22:47;10.4;72.0
78475;SHT31;67766;51.964;5.660;2023-04-06T15:25:18;10.4;72.2
78475;SHT31;67766;51.964;5.660;2023-04-06T15:27:47;10.4;72.2
78475;SHT31;67766;51.964;5.660;2023-04-06T15:30:17;10.5;71.9
78475;SHT31;67766;51.964;5.660;2023-04-06T15:32:52;10.5;71.7
78475;SHT31;67766;51.964;5.660;2023-04-06T15:35:22;10.6;71.7
78475;SHT31;67766;51.964;5.660;2023-04-06T15:37:53;10.7;71.2
78475;SHT31;67766;51.964;5.660;2023-04-06T15:40:23;10.7;70.9
78475;SHT31;67766;51.964;5.660;2023-04-06T15:42:53;10.7;70.2
78475;SHT31;67766;51.964;5.660;2023-04-06T15:45:23;10.6;71.0
78475;SHT31;67766;51.964;5.660;2023-04-06T15:47:57;10.6;71.6
78475;SHT31;67766;51.964;5.660;2023-04-06T15:50:27;10.5;71.3
78475;SHT31;67766;51.964;5.660;2023-04-06T15:52:58;10.5;71.8
78475;SHT31;67766;51.964;5.660;2023-04-06T15:55:27;10.4;72.7
78475;SHT31;67766;51.964;5.660;2023-04-06T15:57:57;10.4;72.8
78475;SHT31;67766;51.964;5.660;2023-04-06T16:00:27;10.4;73.4
78475;SHT31;67766;51.964;5.660;2023-04-06T16:02:57;10.3;73.9
78475;SHT31;67766;51.964;5.660;2023-04-06T16:05:28;10.3;74.1
78475;SHT31;67766;51.964;5.660;2023-04-06T16:07:57;10.2;74.5
78475;SHT31;67766;51.964;5.660;2023-04-06T16:10:27;10.2;75.0
78475;SHT31;67766;51.964;5.660;2023-04-06T16:12:57;10.2;75.2
78475;SHT31;67766;51.964;5.660;2023-04-06T16:15:27;10.1;74.9
78475;SHT31;67766;51.964;5.660;2023-04-06T16:17:57;10.1;75.7
78475;SHT31;67766;51.964;5.660;2023-04-06T16:20:26;10.2;75.6
78475;SHT31;67766;51.964;5.660;2023-04-06T16:22:56;10.2;75.0
78475;SHT31;67766;51.964;5.660;2023-04-06T16:25:26;10.2;75.1
78475;SHT31;67766;51.964;5.660;2023-04-06T16:27:55;10.2;75.1